createdAt,value
2023-04-13T00:01:11.664Z,5.78
2023-04-13T00:03:39.562Z,5.68
2023-04-13T00:06:11.032Z,5.57
2023-04-13T00:08:38.639Z,5.66
2023-04-13T00:11:08.015Z,5.55
2023-04-13T00:13:41.540Z,5.48
2023-04-13T00:16:10.256Z,5.48
2023-04-13T00:18:37.307Z,5.38
2023-04-13T00:21:04.745Z,5.38
2023-04-13T00:23:32.139Z,5.30
2023-04-13T00:26:01.833Z,5.28
2023-04-13T00:28:30.160Z,5.15
2023-04-13T00:30:59.792Z,4.53
2023-04-13T00:33:26.766Z,5.08
2023-04-13T00:35:53.985Z,5.07
2023-04-13T00:38:21.004Z,5.05
2023-04-13T00:40:48.295Z,4.93
2023-04-13T00:43:16.275Z,5.04
2023-04-13T00:45:44.148Z,5.06
2023-04-13T00:48:13.635Z,4.88
2023-04-13T00:50:42.255Z,4.96
2023-04-13T00:53:13.792Z,4.85
2023-04-13T00:55:42.899Z,4.83
2023-04-13T00:58:10.168Z,4.70
2023-04-13T01:00:43.212Z,4.56
2023-04-13T01:03:10.997Z,4.61
2023-04-13T01:06:07.793Z,4.57
2023-04-13T01:09:02.822Z,4.60
2023-04-13T01:11:52.481Z,4.61
2023-04-13T01:14:29.949Z,4.51
2023-04-13T01:20:01.903Z,4.52
2023-04-13T01:22:35.744Z,4.40
2023-04-13T01:25:40.257Z,4.47
2023-04-13T01:28:16.026Z,4.32
2023-04-13T01:30:44.704Z,4.29
2023-04-13T01:33:14.036Z,4.26
2023-04-13T01:35:42.439Z,4.37
2023-04-13T01:38:15.409Z,4.28
2023-04-13T01:40:42.400Z,4.26
2023-04-13T01:43:11.316Z,4.29
2023-04-13T01:46:04.839Z,3.37
2023-04-13T01:48:52.730Z,4.25
2023-04-13T01:51:41.633Z,4.03
2023-04-13T01:54:23.765Z,4.20
2023-04-13T01:56:51.636Z,4.16
2023-04-13T01:59:20.166Z,3.99
2023-04-13T02:01:47.776Z,3.82
2023-04-13T02:04:15.624Z,4.16
2023-04-13T02:06:44.920Z,3.86
2023-04-13T02:09:12.810Z,4.04
2023-04-13T02:11:39.722Z,3.81
2023-04-13T02:14:08.126Z,4.05
2023-04-13T02:16:35.300Z,3.91
2023-04-13T02:19:02.680Z,4.12
2023-04-13T02:21:30.727Z,4.11
2023-04-13T02:23:58.321Z,4.00
2023-04-13T02:26:26.230Z,4.07
2023-04-13T02:28:53.462Z,4.09
2023-04-13T02:31:23.513Z,3.87
2023-04-13T02:33:51.829Z,3.99
2023-04-13T02:36:19.237Z,3.90
2023-04-13T02:38:56.814Z,4.01
2023-04-13T02:41:28.058Z,3.89
2023-04-13T02:43:55.168Z,3.85
2023-04-13T02:46:24.764Z,3.91
2023-04-13T02:48:58.289Z,4.03
2023-04-13T02:51:28.093Z,3.97
2023-04-13T02:53:57.773Z,4.00
2023-04-13T02:56:28.428Z,3.95
2023-04-13T02:58:58.402Z,3.77
2023-04-13T03:01:25.515Z,3.87
2023-04-13T03:03:54.632Z,3.91
2023-04-13T03:06:26.092Z,3.91
2023-04-13T03:08:58.102Z,3.88
2023-04-13T03:11:26.470Z,3.79
2023-04-13T03:14:13.168Z,3.80
2023-04-13T03:16:41.817Z,3.80
2023-04-13T03:19:10.362Z,3.89
2023-04-13T03:21:41.458Z,3.89
2023-04-13T03:24:13.630Z,3.86
2023-04-13T03:26:40.809Z,3.78
2023-04-13T03:29:13.046Z,3.85
2023-04-13T03:31:44.589Z,3.82
2023-04-13T03:34:12.303Z,3.78
2023-04-13T03:36:41.581Z,3.78
2023-04-13T03:39:09.391Z,3.74
2023-04-13T03:41:38.246Z,3.84
2023-04-13T03:44:08.561Z,3.84
2023-04-13T03:46:37.637Z,3.78
2023-04-13T03:49:15.192Z,3.79
2023-04-13T03:51:42.125Z,3.70
2023-04-13T03:54:09.389Z,3.77
2023-04-13T03:56:37.022Z,3.86
2023-04-13T03:59:04.262Z,3.89
2023-04-13T04:01:31.836Z,3.78
2023-04-13T04:03:59.597Z,3.63
2023-04-13T04:06:29.212Z,3.88
2023-04-13T04:09:09.501Z,3.98
2023-04-13T04:11:43.068Z,3.71
2023-04-13T04:14:11.149Z,3.92
2023-04-13T04:16:41.593Z,3.97
2023-04-13T04:19:14.389Z,3.76
2023-04-13T04:21:46.925Z,4.08
2023-04-13T04:24:23.623Z,4.33
2023-04-13T04:26:59.796Z,4.31
2023-04-13T04:29:34.439Z,4.45
2023-04-13T04:32:10.867Z,4.40
2023-04-13T04:34:40.942Z,4.45
2023-04-13T04:37:19.731Z,4.42
2023-04-13T04:39:54.336Z,4.52
2023-04-13T04:42:21.765Z,4.68
2023-04-13T04:44:50.414Z,4.76
2023-04-13T04:47:19.990Z,4.78
2023-04-13T04:50:06.939Z,4.98
2023-04-13T04:52:38.795Z,4.79
2023-04-13T04:55:06.999Z,5.18
2023-04-13T04:57:36.393Z,5.22
2023-04-13T05:00:10.969Z,5.39
2023-04-13T05:02:40.439Z,5.46
2023-04-13T05:05:11.941Z,5.52
2023-04-13T05:07:39.836Z,5.59
2023-04-13T05:10:09.403Z,5.64
2023-04-13T05:12:41.424Z,5.77
2023-04-13T05:15:09.230Z,5.76
2023-04-13T05:17:36.977Z,5.87
2023-04-13T05:20:07.093Z,6.05
2023-04-13T05:22:46.260Z,6.19
2023-04-13T05:25:14.595Z,6.12
2023-04-13T05:27:43.120Z,6.30
2023-04-13T05:30:11.110Z,6.21
2023-04-13T05:32:40.346Z,6.47
2023-04-13T05:35:08.521Z,6.43
2023-04-13T05:37:35.429Z,6.65
2023-04-13T05:40:09.856Z,6.69
2023-04-13T05:42:37.025Z,6.59
2023-04-13T05:45:09.716Z,6.85
2023-04-13T05:47:45.624Z,6.92
2023-04-13T05:50:14.939Z,7.04
2023-04-13T05:52:42.629Z,6.93
2023-04-13T05:55:10.260Z,7.16
2023-04-13T05:57:38.952Z,7.12
2023-04-13T06:00:11.799Z,7.32
2023-04-13T06:02:53.495Z,7.41
2023-04-13T06:05:21.234Z,7.54
2023-04-13T06:07:48.506Z,7.50
2023-04-13T06:10:16.714Z,7.50
2023-04-13T06:12:48.334Z,7.52
2023-04-13T06:15:15.516Z,7.75
2023-04-13T06:17:42.478Z,7.80
2023-04-13T06:20:10.878Z,7.93
2023-04-13T06:22:37.899Z,7.90
2023-04-13T06:25:05.729Z,8.07
2023-04-13T06:27:35.512Z,8.06
2023-04-13T06:30:02.656Z,8.07
2023-04-13T06:32:32.585Z,8.24
2023-04-13T06:34:59.533Z,8.31
2023-04-13T06:37:31.616Z,8.44
2023-04-13T06:39:58.816Z,8.43
2023-04-13T06:42:25.905Z,8.44
2023-04-13T06:45:12.951Z,8.67
2023-04-13T06:47:43.748Z,8.73
2023-04-13T06:50:15.722Z,8.84
2023-04-13T06:52:46.929Z,8.89
2023-04-13T06:55:15.884Z,9.09
2023-04-13T06:57:43.714Z,9.11
2023-04-13T07:00:26.375Z,9.27
2023-04-13T07:02:57.405Z,9.45
2023-04-13T07:05:24.851Z,9.34
2023-04-13T07:07:54.652Z,9.64
2023-04-13T07:10:23.143Z,9.74
2023-04-13T07:12:56.413Z,9.67
2023-04-13T07:15:30.473Z,9.83
2023-04-13T07:17:57.934Z,9.87
2023-04-13T07:20:26.838Z,10.00
2023-04-13T07:22:54.258Z,9.80
2023-04-13T07:25:21.954Z,9.98
2023-04-13T07:27:50.379Z,10.12
2023-04-13T07:30:18.501Z,9.76
2023-04-13T07:32:47.434Z,9.91
2023-04-13T07:35:14.639Z,10.37
2023-04-13T07:37:44.497Z,10.44
2023-04-13T07:40:11.955Z,10.57
2023-04-13T07:42:42.405Z,10.78
2023-04-13T07:45:11.372Z,10.90
2023-04-13T07:47:38.924Z,10.79
2023-04-13T07:50:09.608Z,11.12
2023-04-13T07:52:37.970Z,11.06
2023-04-13T07:55:06.284Z,11.12
2023-04-13T07:57:37.009Z,11.26
2023-04-13T08:00:06.580Z,11.51
2023-04-13T08:02:41.956Z,11.56
2023-04-13T08:05:14.955Z,11.52
2023-04-13T08:07:46.699Z,11.77
2023-04-13T08:10:16.492Z,11.82
2023-04-13T08:12:44.238Z,11.93
2023-04-13T08:15:13.384Z,11.97
2023-04-13T08:17:41.154Z,11.98
2023-04-13T08:20:09.155Z,12.13
2023-04-13T08:22:36.860Z,12.23
2023-04-13T08:25:06.763Z,12.33
2023-04-13T08:27:34.414Z,12.48
2023-04-13T08:30:02.126Z,12.68
2023-04-13T08:32:36.793Z,12.52
2023-04-13T08:35:09.743Z,12.71
2023-04-13T08:37:37.028Z,12.81
2023-04-13T08:40:08.197Z,12.95
2023-04-13T08:42:37.208Z,12.99
2023-04-13T08:45:04.964Z,13.22
2023-04-13T08:47:32.357Z,13.28
2023-04-13T08:50:01.555Z,13.45
2023-04-13T08:52:39.112Z,13.38
2023-04-13T08:55:06.669Z,13.24
2023-04-13T08:57:36.763Z,13.47
2023-04-13T09:00:08.454Z,13.57
2023-04-13T09:02:40.612Z,13.76
2023-04-13T09:05:16.624Z,13.85
2023-04-13T09:07:53.942Z,14.16
2023-04-13T09:10:22.055Z,14.05
2023-04-13T09:12:53.044Z,14.53
2023-04-13T09:15:20.053Z,14.75
2023-04-13T09:18:10.941Z,14.86
2023-04-13T09:20:43.015Z,14.99
2023-04-13T09:23:16.570Z,15.22
2023-04-13T09:25:45.357Z,15.22
2023-04-13T09:28:19.657Z,15.36
2023-04-13T09:30:47.420Z,15.35
2023-04-13T09:33:15.947Z,15.23
2023-04-13T09:35:43.173Z,15.44
2023-04-13T09:38:11.824Z,15.53
2023-04-13T09:40:48.586Z,15.69
2023-04-13T09:43:15.669Z,15.39
2023-04-13T09:45:46.553Z,16.00
2023-04-13T09:48:20.586Z,16.07
2023-04-13T09:51:06.789Z,16.18
2023-04-13T09:53:46.677Z,16.32
2023-04-13T09:56:14.238Z,16.33
2023-04-13T09:58:46.000Z,16.51
2023-04-13T10:01:17.360Z,16.51
2023-04-13T10:03:44.934Z,15.89
2023-04-13T10:06:12.867Z,16.64
2023-04-13T10:08:42.113Z,16.54
2023-04-13T10:11:14.763Z,17.01
2023-04-13T10:13:53.674Z,17.02
2023-04-13T10:16:54.751Z,17.15
2023-04-13T10:19:25.079Z,17.26
2023-04-13T10:21:53.213Z,17.30
2023-04-13T10:24:21.191Z,17.50
2023-04-13T10:26:48.593Z,17.37
2023-04-13T10:29:16.669Z,17.60
2023-04-13T10:31:49.076Z,17.62
2023-04-13T10:34:30.600Z,17.64
2023-04-13T10:37:04.334Z,17.54
2023-04-13T10:39:34.380Z,17.41
2023-04-13T10:42:09.320Z,17.23
2023-04-13T10:44:51.175Z,17.11
2023-04-13T10:47:25.886Z,17.44
2023-04-13T10:49:54.974Z,17.45
2023-04-13T10:52:21.861Z,17.50
2023-04-13T10:54:49.345Z,17.54
2023-04-13T10:57:16.914Z,17.65
2023-04-13T10:59:58.060Z,17.68
2023-04-13T11:02:31.906Z,17.80
2023-04-13T11:05:00.479Z,17.85
2023-04-13T11:07:28.611Z,17.78
2023-04-13T11:12:30.962Z,17.98
2023-04-13T11:14:57.967Z,18.11
2023-04-13T11:17:25.318Z,18.07
2023-04-13T11:19:54.007Z,18.17
2023-04-13T11:22:23.644Z,18.31
2023-04-13T11:24:51.387Z,18.34
2023-04-13T11:27:23.294Z,18.46
2023-04-13T11:29:59.230Z,18.52
2023-04-13T11:32:26.889Z,18.57
2023-04-13T11:34:53.826Z,18.52
2023-04-13T11:37:22.017Z,18.57
2023-04-13T11:39:50.689Z,18.70
2023-04-13T11:42:17.819Z,18.72
2023-04-13T11:44:46.409Z,19.07
2023-04-13T11:47:17.771Z,19.06
2023-04-13T11:49:48.271Z,18.87
2023-04-13T11:52:15.896Z,19.32
2023-04-13T11:54:43.212Z,19.40
2023-04-13T11:57:11.088Z,19.56
2023-04-13T11:59:38.716Z,19.53
2023-04-13T12:02:13.441Z,19.76
2023-04-13T12:04:49.188Z,19.81
2023-04-13T12:07:18.716Z,19.77
2023-04-13T12:17:41.295Z,20.09
2023-04-13T12:20:16.249Z,20.20
2023-04-13T12:25:21.019Z,20.25
2023-04-13T12:27:52.717Z,20.23
2023-04-13T12:30:20.982Z,20.30
2023-04-13T12:32:51.077Z,20.51
2023-04-13T12:35:19.568Z,20.51
2023-04-13T12:37:47.803Z,20.71
2023-04-13T12:40:18.756Z,20.76
2023-04-13T12:42:47.287Z,20.91
2023-04-13T12:45:16.207Z,20.92
2023-04-13T12:47:43.281Z,20.97
2023-04-13T12:50:11.438Z,20.98
2023-04-13T12:52:41.541Z,21.02
2023-04-13T12:55:09.366Z,20.95
2023-04-13T12:57:36.588Z,21.01
2023-04-13T13:00:09.024Z,20.99
2023-04-13T13:02:36.684Z,21.09
2023-04-13T13:05:05.073Z,21.08
2023-04-13T13:07:32.452Z,21.17
2023-04-13T13:10:01.124Z,21.23
2023-04-13T13:12:30.189Z,21.32
2023-04-13T13:14:58.773Z,21.16
2023-04-13T13:17:26.012Z,21.41
2023-04-13T13:19:53.122Z,21.40
2023-04-13T13:22:20.866Z,21.19
2023-04-13T13:24:47.979Z,21.24
2023-04-13T13:27:48.473Z,21.27
2023-04-13T13:30:03.778Z,21.30
2023-04-13T13:32:31.439Z,21.35
2023-04-13T13:34:58.654Z,21.45
2023-04-13T13:37:25.629Z,21.54
2023-04-13T13:39:52.866Z,21.63
2023-04-13T13:42:19.913Z,21.82
2023-04-13T13:44:47.327Z,21.98
2023-04-13T13:47:14.583Z,21.88
2023-04-13T13:49:45.253Z,21.92
2023-04-13T13:52:28.529Z,22.08
2023-04-13T13:55:00.152Z,22.17
2023-04-13T13:57:27.236Z,21.74
2023-04-13T13:59:54.272Z,22.00
2023-04-13T14:02:21.478Z,22.02
2023-04-13T14:04:48.679Z,22.08
2023-04-13T14:07:15.572Z,22.34
2023-04-13T14:09:42.900Z,22.51
2023-04-13T14:12:09.932Z,22.48
2023-04-13T14:14:36.922Z,22.64
2023-04-13T14:17:03.838Z,22.75
2023-04-13T14:19:31.157Z,22.94
2023-04-13T14:21:58.220Z,22.84
2023-04-13T14:24:26.497Z,23.17
2023-04-13T14:26:53.887Z,23.34
2023-04-13T14:29:20.846Z,23.46
2023-04-13T14:31:47.977Z,23.76
2023-04-13T14:34:14.990Z,24.21
2023-04-13T14:36:42.689Z,24.22
2023-04-13T14:39:10.151Z,24.23
2023-04-13T14:41:37.204Z,24.21
2023-04-13T14:44:04.132Z,23.76
2023-04-13T14:46:31.230Z,23.59
2023-04-13T14:48:58.686Z,23.39
2023-04-13T14:51:25.769Z,23.37
2023-04-13T14:53:56.451Z,23.31
2023-04-13T14:56:24.050Z,23.37
2023-04-13T14:58:51.301Z,23.27
2023-04-13T15:01:23.006Z,23.21
2023-04-13T15:03:50.640Z,23.16
2023-04-13T15:06:18.756Z,22.90
2023-04-13T15:08:46.384Z,22.81
2023-04-13T15:11:13.914Z,22.72
2023-04-13T15:13:42.732Z,22.41
2023-04-13T15:16:09.947Z,21.89
2023-04-13T15:18:36.949Z,22.72
2023-04-13T15:21:04.248Z,22.62
2023-04-13T15:23:33.378Z,22.92
2023-04-13T15:26:03.119Z,22.95
2023-04-13T15:28:30.511Z,23.15
2023-04-13T15:30:57.664Z,23.59
2023-04-13T15:33:24.797Z,23.35
2023-04-13T15:35:52.683Z,23.00
2023-04-13T15:38:20.046Z,22.94
2023-04-13T15:40:47.020Z,22.82
2023-04-13T15:43:14.254Z,22.66
2023-04-13T15:45:41.382Z,22.79
2023-04-13T15:48:08.418Z,24.29
2023-04-13T15:50:35.732Z,26.88
2023-04-13T15:53:02.572Z,28.75
2023-04-13T15:55:29.657Z,29.72
2023-04-13T15:57:57.255Z,31.18
2023-04-13T16:00:26.428Z,31.74
2023-04-13T16:02:53.802Z,31.35
2023-04-13T16:05:21.182Z,30.22
2023-04-13T16:07:48.648Z,29.82
2023-04-13T16:10:16.844Z,30.22
2023-04-13T16:12:44.787Z,29.92
2023-04-13T16:15:13.078Z,29.56
2023-04-13T16:17:43.744Z,29.19
2023-04-13T16:20:14.669Z,29.32
2023-04-13T16:22:42.845Z,29.29
2023-04-13T16:25:15.424Z,28.47
2023-04-13T16:27:43.017Z,27.27
2023-04-13T16:30:13.483Z,26.59
2023-04-13T16:32:42.636Z,25.80
2023-04-13T16:35:10.161Z,25.04
2023-04-13T16:37:42.580Z,24.46
2023-04-13T16:40:11.278Z,23.72
2023-04-13T16:42:39.430Z,23.20
2023-04-13T16:45:07.737Z,22.46
2023-04-13T16:47:35.552Z,22.06
2023-04-13T16:50:02.496Z,21.70
2023-04-13T16:52:33.234Z,21.25
2023-04-13T16:55:01.515Z,20.84
2023-04-13T16:57:28.849Z,20.40
2023-04-13T16:59:59.971Z,20.08
2023-04-13T17:02:31.502Z,19.83
2023-04-13T17:04:59.008Z,19.43
2023-04-13T17:07:28.209Z,19.34
2023-04-13T17:09:55.512Z,19.15
2023-04-13T17:12:22.977Z,18.94
2023-04-13T17:14:50.175Z,18.80
2023-04-13T17:17:17.144Z,18.67
2023-04-13T17:19:44.268Z,18.47
2023-04-13T17:22:11.672Z,18.39
2023-04-13T17:24:39.251Z,18.16
2023-04-13T17:27:06.587Z,18.00
2023-04-13T17:29:38.007Z,18.03
2023-04-13T17:32:06.120Z,17.93
2023-04-13T17:34:33.212Z,17.83
2023-04-13T17:37:02.198Z,17.70
2023-04-13T17:39:29.265Z,17.50
2023-04-13T17:41:56.717Z,17.42
2023-04-13T17:44:23.776Z,17.34
2023-04-13T17:46:52.736Z,17.33
2023-04-13T17:49:22.768Z,17.26
2023-04-13T17:51:50.351Z,17.09
2023-04-13T17:54:17.455Z,17.05
2023-04-13T17:56:44.552Z,16.98
2023-04-13T17:59:15.922Z,16.43
2023-04-13T18:01:43.764Z,16.57
2023-04-13T18:04:12.372Z,16.69
2023-04-13T18:06:40.858Z,16.56
2023-04-13T18:09:09.071Z,16.52
2023-04-13T18:11:36.342Z,16.26
2023-04-13T18:14:03.274Z,16.26
2023-04-13T18:16:34.009Z,16.13
2023-04-13T18:19:01.506Z,16.07
2023-04-13T18:21:28.791Z,15.99
2023-04-13T18:23:56.275Z,15.88
2023-04-13T18:26:23.388Z,15.51
2023-04-13T18:28:50.710Z,15.86
2023-04-13T18:31:17.737Z,15.94
2023-04-13T18:33:45.145Z,15.77
2023-04-13T18:36:16.855Z,15.99
2023-04-13T18:38:45.248Z,15.91
2023-04-13T18:41:12.813Z,16.07
2023-04-13T18:43:39.821Z,16.06
2023-04-13T18:46:08.083Z,15.88
2023-04-13T18:48:35.769Z,15.72
2023-04-13T18:51:03.743Z,15.73
2023-04-13T18:53:31.234Z,16.06
2023-04-13T18:55:59.069Z,16.07
2023-04-13T18:58:27.187Z,15.86
2023-04-13T19:00:55.795Z,15.97
2023-04-13T19:03:23.596Z,15.69
2023-04-13T19:05:50.735Z,15.72
2023-04-13T19:08:17.879Z,15.43
2023-04-13T19:10:45.102Z,15.74
2023-04-13T19:13:15.123Z,15.50
2023-04-13T19:15:42.519Z,15.52
2023-04-13T19:18:11.434Z,15.48
2023-04-13T19:20:38.444Z,15.33
2023-04-13T19:23:06.799Z,15.44
2023-04-13T19:25:34.096Z,15.03
2023-04-13T19:28:01.600Z,15.24
2023-04-13T19:30:28.857Z,14.87
2023-04-13T19:32:56.080Z,14.77
2023-04-13T19:35:24.489Z,14.59
2023-04-13T19:37:51.466Z,14.85
2023-04-13T19:40:18.881Z,14.81
2023-04-13T19:42:46.385Z,14.78
2023-04-13T19:45:14.589Z,14.64
2023-04-13T19:47:42.586Z,14.48
2023-04-13T19:50:12.457Z,14.67
2023-04-13T19:52:41.475Z,14.60
2023-04-13T19:55:12.175Z,14.40
2023-04-13T19:57:43.194Z,14.40
2023-04-13T20:00:19.238Z,14.42
2023-04-13T20:02:51.207Z,14.46
2023-04-13T20:05:19.619Z,14.46
2023-04-13T20:07:46.552Z,14.30
2023-04-13T20:10:15.207Z,14.35
2023-04-13T20:12:42.061Z,14.23
2023-04-13T20:15:09.534Z,14.29
2023-04-13T20:17:36.548Z,14.29
2023-04-13T20:20:06.129Z,14.29
2023-04-13T20:22:33.064Z,14.29
2023-04-13T20:25:00.663Z,14.12
2023-04-13T20:27:27.873Z,13.43
2023-04-13T20:29:55.014Z,14.14
2023-04-13T20:32:21.938Z,13.85
2023-04-13T20:34:49.181Z,13.85
2023-04-13T20:37:18.487Z,13.77
2023-04-13T20:39:52.998Z,13.83
2023-04-13T20:42:21.816Z,13.66
2023-04-13T20:44:57.509Z,13.63
2023-04-13T20:47:28.488Z,13.60
2023-04-13T20:49:57.378Z,13.51
2023-04-13T20:52:25.992Z,13.40
2023-04-13T20:54:54.730Z,13.35
2023-04-13T20:57:22.135Z,13.20
2023-04-13T20:59:52.140Z,13.10
2023-04-13T21:02:19.280Z,13.02
2023-04-13T21:04:46.869Z,13.03
2023-04-13T21:07:15.411Z,11.94
2023-04-13T21:09:42.808Z,13.07
2023-04-13T21:12:09.799Z,13.05
2023-04-13T21:14:36.875Z,12.87
2023-04-13T21:17:05.014Z,12.70
2023-04-13T21:19:32.677Z,12.90
2023-04-13T21:21:59.736Z,12.85
2023-04-13T21:24:26.923Z,12.78
2023-04-13T21:26:54.072Z,12.81
2023-04-13T21:29:21.711Z,12.73
2023-04-13T21:31:49.193Z,11.76
2023-04-13T21:34:17.196Z,12.66
2023-04-13T21:39:16.047Z,12.48
2023-04-13T21:41:42.992Z,12.44
2023-04-13T21:44:22.723Z,12.35
2023-04-13T21:46:55.947Z,12.52
2023-04-13T21:49:23.140Z,12.46
2023-04-13T21:51:50.078Z,12.34
2023-04-13T21:54:17.269Z,12.31
2023-04-13T21:56:44.184Z,12.27
2023-04-13T21:59:11.533Z,12.27
2023-04-13T22:01:38.577Z,12.27
2023-04-13T22:04:06.372Z,12.19
2023-04-13T22:06:33.542Z,12.25
2023-04-13T22:09:00.931Z,11.93
2023-04-13T22:11:28.326Z,12.25
2023-04-13T22:13:55.282Z,12.17
2023-04-13T22:16:22.587Z,12.08
2023-04-13T22:18:49.987Z,12.05
2023-04-13T22:21:16.913Z,12.12
2023-04-13T22:23:43.989Z,12.16
2023-04-13T22:26:10.933Z,12.04
2023-04-13T22:28:37.993Z,12.00
2023-04-13T22:31:09.043Z,11.87
2023-04-13T22:33:36.555Z,11.83
2023-04-13T22:36:05.237Z,12.00
2023-04-13T22:38:32.587Z,12.03
2023-04-13T22:41:04.920Z,11.92
2023-04-13T22:43:31.925Z,11.74
2023-04-13T22:45:59.668Z,11.88
2023-04-13T22:48:30.418Z,11.76
2023-04-13T22:51:00.424Z,11.93
2023-04-13T22:53:27.857Z,11.83
2023-04-13T22:55:54.846Z,11.82
2023-04-13T22:58:23.033Z,11.71
2023-04-13T23:00:50.095Z,11.94
2023-04-13T23:03:17.324Z,11.92
2023-04-13T23:05:46.009Z,11.87
2023-04-13T23:08:13.516Z,11.55
2023-04-13T23:10:40.597Z,11.87
2023-04-13T23:13:07.673Z,11.79
2023-04-13T23:15:34.709Z,11.84
2023-04-13T23:18:02.903Z,11.80
2023-04-13T23:20:30.509Z,11.75
2023-04-13T23:22:57.396Z,11.77
2023-04-13T23:25:24.426Z,11.78
2023-04-13T23:27:51.300Z,11.46
2023-04-13T23:30:18.526Z,11.78
2023-04-13T23:32:45.597Z,11.75
2023-04-13T23:35:12.565Z,11.88
2023-04-13T23:37:40.685Z,11.64
2023-04-13T23:40:09.250Z,11.94
2023-04-13T23:42:36.570Z,11.84
2023-04-13T23:45:04.249Z,11.90
2023-04-13T23:47:31.501Z,11.82
2023-04-13T23:49:58.516Z,11.90
2023-04-13T23:52:25.376Z,11.91
2023-04-13T23:54:52.304Z,11.89
2023-04-13T23:57:19.189Z,11.85
2023-04-13T23:59:46.413Z,11.97
